Time;durP1;ratioP1;P1;durP2;ratioP2;P2;SDS_P1;SDS_P2;PMS_P1;PMS_P2;Temp;Humidity;BMP_temperature;BMP_pressure;BME280_temperature;BME280_humidity;BME280_pressure;Samples;Min_cycle;Max_cycle;Signal;HPM_P1;HPM_P2
2021/08/25 00:04:22;;;;;;;8.00;5.10;;;;;;;11.25;77.13;101156.14;226903;1200;138276;-73
2021/08/25 00:09:23;;;;;;;7.10;5.30;;;;;;;11.22;77.50;101157.25;226884;1207;138350;-73
2021/08/25 00:14:25;;;;;;;8.00;5.00;;;;;;;11.14;77.77;101158.30;227506;1200;138557;-74
2021/08/25 00:19:26;;;;;;;8.10;5.80;;;;;;;11.08;78.18;101151.87;226856;1207;139786;-72
2021/08/25 00:24:28;;;;;;;6.90;5.50;;;;;;;11.05;77.70;101142.56;226884;1200;139715;-73
2021/08/25 00:29:30;;;;;;;7.30;6.20;;;;;;;11.03;77.44;101144.12;226824;1201;138820;-73
2021/08/25 00:34:31;;;;;;;9.30;5.70;;;;;;;10.99;77.33;101129.86;226911;1208;138446;-71
2021/08/25 00:39:33;;;;;;;8.30;5.70;;;;;;;10.91;77.91;101126.11;226916;1200;138781;-72
2021/08/25 00:44:35;;;;;;;11.30;6.50;;;;;;;10.87;78.15;101123.19;226926;1207;138754;-73
2021/08/25 00:49:37;;;;;;;10.90;5.80;;;;;;;10.81;78.24;101119.67;226893;1207;139048;-72
2021/08/25 00:54:38;;;;;;;8.90;5.20;;;;;;;10.74;77.78;101120.61;227318;1200;139174;-72
2021/08/25 00:59:40;;;;;;;7.80;5.10;;;;;;;10.75;78.29;101121.42;226865;1208;139379;-73
2021/08/25 01:04:53;;;;;;;8.30;5.60;;;;;;;10.75;78.31;101117.55;226985;1200;139279;-72
2021/08/25 01:09:56;;;;;;;7.80;5.60;;;;;;;10.64;78.08;101119.02;226962;1208;138509;-73
2021/08/25 01:14:58;;;;;;;7.30;5.20;;;;;;;10.52;78.45;101118.85;227023;1207;138299;-73
2021/08/25 01:20:12;;;;;;;8.20;5.40;;;;;;;10.32;79.05;101117.27;226953;1207;139334;-72
2021/08/25 01:25:14;;;;;;;11.00;6.80;;;;;;;10.31;79.01;101125.46;227120;1207;140045;-72
2021/08/25 01:30:17;;;;;;;9.50;5.50;;;;;;;10.29;78.94;101128.15;226971;1200;138763;-73
2021/08/25 01:35:19;;;;;;;7.40;5.00;;;;;;;10.15;79.14;101123.66;227073;1208;139172;-72
2021/08/25 01:40:21;;;;;;;7.90;5.80;;;;;;;10.01;79.72;101124.52;226971;1207;138537;-73
2021/08/25 01:45:22;;;;;;;10.40;5.00;;;;;;;9.92;79.90;101116.47;226971;1207;138907;-72
2021/08/25 01:50:24;;;;;;;8.30;5.20;;;;;;;9.93;79.69;101111.45;226977;1207;138750;-72
2021/08/25 01:55:26;;;;;;;6.70;5.20;;;;;;;9.92;79.83;101111.39;226901;1208;138236;-73
2021/08/25 02:00:28;;;;;;;7.70;5.70;;;;;;;9.88;79.78;101112.77;226974;1201;138045;-73
2021/08/25 02:05:30;;;;;;;7.70;5.00;;;;;;;9.73;80.40;101108.10;227058;1207;139046;-71
2021/08/25 02:10:33;;;;;;;8.20;5.50;;;;;;;9.65;80.45;101099.95;227096;1207;139777;-74
2021/08/25 02:15:35;;;;;;;7.30;4.80;;;;;;;9.60;80.76;101095.83;228561;1200;138853;-73
2021/08/25 02:20:37;;;;;;;7.50;5.10;;;;;;;9.66;80.17;101092.16;227519;1208;138504;-73
2021/08/25 02:25:39;;;;;;;8.20;5.00;;;;;;;9.70;80.36;101083.20;228245;1207;137794;-71
2021/08/25 02:30:41;;;;;;;6.30;5.00;;;;;;;9.59;79.92;101076.33;227035;1207;137920;-72
2021/08/25 02:35:42;;;;;;;8.30;4.90;;;;;;;9.49;80.12;101076.10;227004;1207;138026;-72
2021/08/25 02:40:44;;;;;;;7.00;5.00;;;;;;;9.38;80.86;101083.23;226991;1208;139167;-71
2021/08/25 02:45:46;;;;;;;6.50;5.10;;;;;;;9.33;81.23;101070.59;227043;1207;138367;-72
2021/08/25 02:50:47;;;;;;;6.80;5.00;;;;;;;9.33;81.00;101065.88;226995;1207;137923;-72
2021/08/25 02:55:49;;;;;;;8.30;5.40;;;;;;;9.31;80.84;101067.95;227046;1207;137838;-72
2021/08/25 03:00:50;;;;;;;8.20;4.80;;;;;;;9.33;80.74;101063.77;227021;1201;138421;-72
2021/08/25 03:05:52;;;;;;;8.50;5.10;;;;;;;9.40;80.43;101059.51;226902;1201;139351;-71
2021/08/25 03:10:54;;;;;;;6.90;5.50;;;;;;;9.26;80.95;101061.02;227003;1207;138326;-72
2021/08/25 03:15:56;;;;;;;7.70;5.30;;;;;;;9.14;81.02;101052.34;226958;1200;138126;-73
2021/08/25 03:20:57;;;;;;;7.20;5.30;;;;;;;9.07;81.38;101048.02;226928;1201;138891;-73
2021/08/25 03:25:59;;;;;;;6.70;5.40;;;;;;;9.06;81.24;101041.37;226924;1201;138518;-71
2021/08/25 03:31:01;;;;;;;6.90;5.30;;;;;;;8.98;81.83;101042.54;227073;1207;138881;-74
2021/08/25 03:36:02;;;;;;;7.80;5.30;;;;;;;8.92;81.84;101044.69;226894;1207;138830;-70
2021/08/25 03:41:04;;;;;;;6.80;5.20;;;;;;;8.96;81.05;101045.88;226973;1196;138736;-74
2021/08/25 03:46:06;;;;;;;6.70;5.30;;;;;;;9.02;80.76;101047.20;226895;1207;138852;-74
2021/08/25 03:51:07;;;;;;;8.70;5.70;;;;;;;8.89;81.06;101046.49;226946;1207;138931;-75
2021/08/25 03:56:09;;;;;;;8.00;5.90;;;;;;;8.89;81.09;101040.23;226920;1200;137846;-70
2021/08/25 04:01:10;;;;;;;10.70;5.80;;;;;;;8.77;81.00;101043.12;227020;1208;138620;-73
2021/08/25 04:06:12;;;;;;;12.20;5.70;;;;;;;8.67;81.84;101041.29;226904;1200;138961;-72
2021/08/25 04:11:20;;;;;;;6.80;5.10;;;;;;;8.74;81.68;101036.99;226987;1207;139580;-72
2021/08/25 04:16:22;;;;;;;9.90;7.60;;;;;;;8.80;81.55;101038.66;226977;1202;138375;-71
2021/08/25 04:21:25;;;;;;;7.40;5.50;;;;;;;8.77;81.17;101043.48;226934;1207;138242;-74
2021/08/25 04:26:26;;;;;;;9.20;6.90;;;;;;;8.67;81.82;101045.14;227010;1201;138249;-72
2021/08/25 04:31:28;;;;;;;10.80;6.00;;;;;;;8.57;82.17;101038.92;226819;1207;137803;-72
2021/08/25 04:36:30;;;;;;;8.10;5.80;;;;;;;8.53;82.50;101042.92;226802;1207;139206;-73
2021/08/25 04:41:31;;;;;;;11.50;5.60;;;;;;;8.65;82.21;101043.73;226911;1208;138636;-71
2021/08/25 04:46:33;;;;;;;9.30;6.00;;;;;;;8.69;82.18;101039.55;226839;1201;139138;-71
2021/08/25 04:51:35;;;;;;;8.50;6.00;;;;;;;8.78;81.99;101041.94;226976;1202;138538;-73
2021/08/25 04:56:37;;;;;;;8.00;6.00;;;;;;;8.81;82.18;101042.45;226829;1207;139338;-72
2021/08/25 05:01:38;;;;;;;12.50;6.80;;;;;;;8.76;82.37;101040.17;226822;1208;137740;-73
2021/08/25 05:06:40;;;;;;;7.80;6.10;;;;;;;8.73;83.11;101036.44;226826;1207;139198;-71
2021/08/25 05:11:41;;;;;;;8.20;6.30;;;;;;;8.84;82.67;101032.36;226874;1207;139230;-73
2021/08/25 05:16:43;;;;;;;9.20;6.20;;;;;;;8.97;82.80;101028.23;226878;1207;138746;-72
2021/08/25 05:21:45;;;;;;;8.30;5.90;;;;;;;9.04;82.93;101027.70;226901;1201;139246;-72
2021/08/25 05:26:47;;;;;;;10.60;6.80;;;;;;;9.07;82.82;101026.16;226937;1207;138686;-73
2021/08/25 05:31:48;;;;;;;11.60;6.30;;;;;;;9.17;82.68;101020.99;227215;1207;138556;-73
2021/08/25 05:36:50;;;;;;;16.00;8.10;;;;;;;9.14;82.83;101015.30;229283;1201;139162;-77
2021/08/25 05:41:52;;;;;;;10.00;6.10;;;;;;;9.33;82.54;101015.45;226988;1207;139855;-71
2021/08/25 05:46:53;;;;;;;11.60;6.60;;;;;;;9.47;82.07;101012.06;226938;1207;139277;-72
2021/08/25 05:51:55;;;;;;;8.40;6.00;;;;;;;9.52;81.79;101011.70;226844;1207;137984;-73
2021/08/25 05:56:57;;;;;;;8.70;5.90;;;;;;;9.58;82.58;101010.84;226814;1207;138292;-73
2021/08/25 06:01:59;;;;;;;8.50;5.60;;;;;;;9.55;82.59;101011.70;226874;1208;138403;-73
2021/08/25 06:07:00;;;;;;;9.10;5.90;;;;;;;9.60;83.19;101011.70;226841;1208;138750;-73
2021/08/25 06:12:03;;;;;;;11.40;6.50;;;;;;;9.79;82.53;101009.35;226804;1201;138537;-72
2021/08/25 06:17:05;;;;;;;12.80;6.80;;;;;;;9.89;81.73;101002.50;226872;1208;138551;-72
2021/08/25 06:22:06;;;;;;;9.30;6.70;;;;;;;9.95;82.47;100998.61;226956;1208;138930;-72
2021/08/25 06:27:09;;;;;;;8.90;5.30;;;;;;;10.03;82.19;101001.96;226988;1208;137833;-72
2021/08/25 06:32:11;;;;;;;9.40;6.30;;;;;;;10.08;81.59;101005.59;227218;1206;138907;-71
2021/08/25 06:37:12;;;;;;;7.80;5.20;;;;;;;10.12;82.19;101004.75;227648;1200;139478;-74
2021/08/25 06:42:14;;;;;;;10.30;5.20;;;;;;;10.20;81.70;100998.55;227550;1207;139158;-72
2021/08/25 06:47:16;;;;;;;10.20;6.50;;;;;;;10.37;82.66;100993.03;227204;1207;139295;-73
2021/08/25 06:52:17;;;;;;;9.00;6.10;;;;;;;10.51;82.60;100989.81;227378;1202;140426;-72
2021/08/25 06:57:19;;;;;;;9.20;5.70;;;;;;;10.61;81.68;100989.10;227908;1207;138706;-72
2021/08/25 07:02:21;;;;;;;6.60;5.60;;;;;;;10.71;81.80;100978.48;227495;1208;138258;-75
2021/08/25 07:07:23;;;;;;;8.70;6.00;;;;;;;10.67;81.39;100972.73;226886;1208;138426;-73
2021/08/25 07:12:24;;;;;;;11.20;6.30;;;;;;;10.71;81.25;100967.42;227391;1201;138946;-72
2021/08/25 07:17:26;;;;;;;6.80;5.50;;;;;;;10.87;81.07;100962.77;226855;1202;139559;-74
2021/08/25 07:22:28;;;;;;;10.70;7.80;;;;;;;11.00;80.40;100956.83;226981;1202;138435;-72
2021/08/25 07:27:29;;;;;;;8.60;6.00;;;;;;;11.16;79.46;100952.64;226876;1202;138706;-73
2021/08/25 07:32:31;;;;;;;7.30;4.80;;;;;;;11.33;79.70;100945.40;226920;1207;138536;-72
2021/08/25 07:37:33;;;;;;;7.90;5.60;;;;;;;11.41;79.58;100947.14;226820;1207;138896;-73
2021/08/25 07:42:35;;;;;;;10.80;6.10;;;;;;;11.55;79.22;100940.84;226928;1208;139394;-73
2021/08/25 07:47:38;;;;;;;8.80;5.40;;;;;;;11.78;78.41;100934.44;226883;1208;139742;-73
2021/08/25 07:52:41;;;;;;;6.90;5.60;;;;;;;12.00;76.48;100928.61;227289;1201;139570;-71
2021/08/25 07:57:46;;;;;;;8.10;4.20;;;;;;;12.14;75.34;100927.48;227017;1208;138266;-73
2021/08/25 08:02:48;;;;;;;8.40;4.90;;;;;;;12.15;73.25;100929.14;227019;1207;138047;-73
2021/08/25 08:07:49;;;;;;;7.80;5.00;;;;;;;12.22;73.41;100917.65;226844;1208;138403;-73
2021/08/25 08:12:52;;;;;;;9.70;5.80;;;;;;;12.35;73.28;100908.54;227026;1207;138853;-73
2021/08/25 08:17:54;;;;;;;6.30;4.90;;;;;;;12.61;72.42;100910.23;227177;1208;138944;-71
2021/08/25 08:22:56;;;;;;;9.20;5.80;;;;;;;12.71;71.24;100906.08;227204;1208;138443;-73
2021/08/25 08:27:58;;;;;;;6.70;5.10;;;;;;;12.71;70.47;100903.07;227067;1205;138313;-69
2021/08/25 08:32:59;;;;;;;7.40;5.20;;;;;;;12.81;71.43;100901.88;227034;1208;138412;-72
2021/08/25 08:38:03;;;;;;;9.90;6.30;;;;;;;12.98;70.39;100896.79;227039;1208;138823;-72
2021/08/25 08:43:11;;;;;;;8.60;5.10;;;;;;;13.12;69.94;100882.25;227121;1207;138582;-73
2021/08/25 08:48:14;;;;;;;5.50;4.50;;;;;;;13.26;69.98;100875.66;227174;1208;138392;-72
2021/08/25 08:53:17;;;;;;;7.80;5.20;;;;;;;13.24;69.53;100866.84;227034;1202;138412;-72
2021/08/25 08:58:19;;;;;;;9.00;6.40;;;;;;;13.34;68.32;100859.09;227850;1201;139100;-72
2021/08/25 09:03:23;;;;;;;8.90;6.10;;;;;;;13.49;67.69;100851.05;227140;1208;138906;-73
2021/08/25 09:08:27;;;;;;;8.40;4.90;;;;;;;13.63;66.75;100844.75;227076;1208;138327;-73
2021/08/25 09:13:34;;;;;;;6.90;5.50;;;;;;;13.78;64.20;100834.70;227943;1208;138502;-73
2021/08/25 09:18:36;;;;;;;7.70;4.30;;;;;;;13.83;62.57;100830.89;226990;1208;139089;-73
2021/08/25 09:23:45;;;;;;;7.60;4.70;;;;;;;14.05;64.42;100828.75;227185;1202;138833;-73
2021/08/25 09:28:49;;;;;;;5.70;4.50;;;;;;;14.17;62.12;100818.46;226987;1208;138459;-74
2021/08/25 09:33:50;;;;;;;5.80;3.70;;;;;;;14.07;62.74;100817.55;226973;1207;138577;-72
2021/08/25 09:38:55;;;;;;;7.30;4.40;;;;;;;14.06;61.21;100813.01;227221;1201;139401;-73
2021/08/25 09:43:57;;;;;;;7.90;5.20;;;;;;;14.25;59.60;100806.23;227266;1208;140882;-72
2021/08/25 09:48:59;;;;;;;6.70;5.00;;;;;;;14.11;60.18;100797.67;226967;1208;139035;-72
2021/08/25 09:54:11;;;;;;;6.30;3.90;;;;;;;14.07;61.84;100788.20;227284;1200;140211;-73
2021/08/25 09:59:13;;;;;;;5.00;3.20;;;;;;;14.08;61.97;100781.64;227068;1208;139234;-72
2021/08/25 10:04:16;;;;;;;7.50;3.20;;;;;;;14.27;58.79;100774.79;227466;1207;138911;-73
2021/08/25 10:09:18;;;;;;;1.90;1.70;;;;;;;14.66;56.19;100769.14;227232;1208;139200;-73
2021/08/25 10:14:20;;;;;;;5.60;2.50;;;;;;;14.38;53.89;100765.61;227009;1208;138250;-74
2021/08/25 10:19:37;;;;;;;2.40;1.80;;;;;;;14.21;56.52;100757.55;227051;1208;138330;-72
2021/08/25 10:24:58;;;;;;;3.30;2.20;;;;;;;14.32;55.53;100752.63;227291;1208;138435;-73
2021/08/25 10:30:13;;;;;;;1.60;1.30;;;;;;;14.40;54.53;100747.16;226940;1206;138845;-73
2021/08/25 10:35:34;;;;;;;2.70;2.10;;;;;;;14.18;55.26;100744.19;227034;1207;139284;-74
2021/08/25 10:40:35;;;;;;;2.60;1.80;;;;;;;14.14;56.09;100730.55;227160;1208;138185;-71
2021/08/25 10:45:43;;;;;;;5.00;3.90;;;;;;;14.20;56.54;100723.78;227173;1208;138696;-74
2021/08/25 10:50:52;;;;;;;2.00;1.80;;;;;;;14.31;56.08;100719.06;227331;1208;139549;-70
2021/08/25 10:56:09;;;;;;;1.50;1.40;;;;;;;14.39;55.81;100711.55;227424;1202;138337;-76
2021/08/25 11:01:44;;;;;;;2.20;1.50;;;;;;;14.51;56.25;100700.88;227159;1208;138333;-70
2021/08/25 11:06:46;;;;;;;1.60;1.00;;;;;;;14.56;57.31;100696.23;227039;1208;138161;-71
2021/08/25 11:11:53;;;;;;;3.10;2.10;;;;;;;14.43;56.11;100688.94;227187;1208;138259;-71
2021/08/25 11:17:23;;;;;;;2.50;2.20;;;;;;;14.56;55.93;100680.30;227271;1201;138477;-73
2021/08/25 11:22:32;;;;;;;1.30;1.20;;;;;;;14.63;55.67;100671.42;227120;1207;138378;-75
2021/08/25 11:27:38;;;;;;;2.30;1.20;;;;;;;14.63;56.57;100667.90;226991;1208;138895;-74
2021/08/25 11:32:55;;;;;;;2.10;1.50;;;;;;;14.62;56.09;100663.88;227023;1207;138994;-73
2021/08/25 11:38:01;;;;;;;2.40;1.20;;;;;;;14.49;57.01;100657.57;227161;1208;139261;-74
2021/08/25 11:43:07;;;;;;;;;;;;;;;14.43;57.87;100655.53;227408;1202;139053;-77
2021/08/25 11:48:09;;;;;;;4.20;2.10;;;;;;;14.36;58.06;100650.56;227840;1205;128543;-71
2021/08/25 11:53:14;;;;;;;1.60;1.50;;;;;;;14.42;58.78;100652.59;226906;1207;138890;-70
2021/08/25 11:58:23;;;;;;;3.20;1.60;;;;;;;14.54;59.53;100642.09;227375;1208;138327;-74
2021/08/25 12:03:44;;;;;;;2.40;1.30;;;;;;;14.64;58.70;100636.83;227152;1208;139230;-73
2021/08/25 12:08:48;;;;;;;2.70;2.10;;;;;;;14.66;58.56;100618.56;227328;1202;138887;-75
2021/08/25 12:13:58;;;;;;;2.20;1.60;;;;;;;14.67;58.53;100612.41;227178;1207;138755;-74
2021/08/25 12:19:02;;;;;;;2.40;1.40;;;;;;;14.63;58.03;100606.40;227770;1206;138122;-72
2021/08/25 12:24:09;;;;;;;3.60;1.70;;;;;;;14.61;58.04;100597.88;227762;1208;138480;-73
2021/08/25 12:29:12;;;;;;;3.00;2.20;;;;;;;14.71;59.56;100592.30;227223;1208;137964;-73
2021/08/25 12:34:16;;;;;;;2.20;1.50;;;;;;;14.81;58.49;100578.38;227284;1201;138939;-72
2021/08/25 12:39:22;;;;;;;2.00;1.50;;;;;;;14.89;58.94;100569.98;227205;1208;138053;-73
2021/08/25 12:44:25;;;;;;;3.70;1.80;;;;;;;14.92;59.16;100566.27;227094;1207;138331;-74
2021/08/25 12:49:29;;;;;;;4.00;3.50;;;;;;;14.85;60.37;100567.08;227389;1202;138261;-73
2021/08/25 12:54:31;;;;;;;3.20;2.80;;;;;;;14.85;60.87;100564.24;227273;1205;138870;-72
2021/08/25 12:59:32;;;;;;;3.10;2.70;;;;;;;15.29;59.98;100549.37;227192;1207;138584;-73
2021/08/25 13:04:36;;;;;;;6.20;3.80;;;;;;;15.07;60.69;100552.28;227187;1208;140936;-73
2021/08/25 13:09:37;;;;;;;4.80;2.90;;;;;;;14.92;60.82;100549.71;227359;1208;139384;-70
2021/08/25 13:14:39;;;;;;;5.10;4.60;;;;;;;14.85;61.95;100544.12;227688;1201;138600;-73
2021/08/25 13:19:41;;;;;;;4.30;4.00;;;;;;;14.81;62.36;100542.55;227231;1208;137877;-72
2021/08/25 13:24:43;;;;;;;4.90;4.20;;;;;;;14.75;62.34;100535.94;227238;1201;138229;-72
2021/08/25 13:29:45;;;;;;;5.30;4.80;;;;;;;14.73;62.44;100526.25;227065;1206;138211;-73
2021/08/25 13:34:45;;;;;;;5.00;4.50;;;;;;;14.80;63.83;100521.38;227257;1208;138065;-73
2021/08/25 13:39:47;;;;;;;5.20;3.90;;;;;;;14.79;62.97;100521.98;227221;1208;138016;-68
2021/08/25 13:44:50;;;;;;;5.90;4.10;;;;;;;14.81;63.03;100519.67;227175;1208;139146;-70
2021/08/25 13:49:51;;;;;;;3.90;3.60;;;;;;;14.79;63.92;100511.09;227212;1207;138763;-72
2021/08/25 13:54:53;;;;;;;4.10;3.60;;;;;;;14.78;63.71;100505.39;227186;1208;138614;-73
2021/08/25 13:59:55;;;;;;;3.90;3.40;;;;;;;14.78;63.43;100494.64;227115;1208;139240;-73
2021/08/25 14:04:56;;;;;;;3.00;2.80;;;;;;;14.81;62.87;100487.30;227549;1205;138308;-72
2021/08/25 14:09:58;;;;;;;3.40;3.10;;;;;;;14.85;62.62;100477.86;227225;1207;138435;-72
2021/08/25 14:15:00;;;;;;;4.50;4.10;;;;;;;14.92;62.59;100469.92;227219;1208;138767;-72
2021/08/25 14:20:02;;;;;;;3.60;3.10;;;;;;;14.93;62.21;100457.90;227225;1207;138391;-73
2021/08/25 14:25:04;;;;;;;2.90;2.70;;;;;;;14.92;61.80;100451.83;227016;1202;138352;-73
2021/08/25 14:30:06;;;;;;;3.40;2.90;;;;;;;15.05;61.83;100445.77;227126;1208;138591;-71
2021/08/25 14:35:08;;;;;;;3.80;2.60;;;;;;;15.25;61.97;100436.41;227519;1201;139112;-73
2021/08/25 14:40:10;;;;;;;4.10;2.70;;;;;;;15.50;60.91;100423.31;227411;1201;138763;-72
2021/08/25 14:45:12;;;;;;;3.50;3.00;;;;;;;15.68;60.07;100416.46;227284;1208;138153;-73
2021/08/25 14:50:14;;;;;;;1.80;1.60;;;;;;;15.83;59.17;100397.26;227133;1208;139004;-71
2021/08/25 14:55:16;;;;;;;3.40;1.90;;;;;;;15.79;59.34;100396.84;227136;1208;138109;-72
2021/08/25 15:00:18;;;;;;;2.70;2.00;;;;;;;15.44;58.94;100395.21;227245;1201;138375;-76
2021/08/25 15:05:20;;;;;;;2.70;2.00;;;;;;;15.20;59.40;100392.63;227453;1202;139022;-75
2021/08/25 15:10:22;;;;;;;12.90;2.70;;;;;;;15.04;61.36;100390.23;227538;1206;139012;-73
2021/08/25 15:15:24;;;;;;;3.30;2.00;;;;;;;15.11;61.65;100378.27;226983;1208;138636;-73
2021/08/25 15:20:26;;;;;;;2.40;1.60;;;;;;;15.09;62.22;100375.30;226977;1207;138569;-73
2021/08/25 15:25:28;;;;;;;2.90;1.70;;;;;;;15.09;62.36;100374.52;227211;1206;138217;-73
2021/08/25 15:30:29;;;;;;;4.10;1.90;;;;;;;15.28;62.33;100366.73;227273;1207;139055;-74
2021/08/25 15:35:31;;;;;;;6.70;4.00;;;;;;;15.41;61.29;100355.77;226999;1205;139143;-73
2021/08/25 15:40:33;;;;;;;2.50;2.00;;;;;;;15.42;60.83;100357.24;227120;1201;138285;-71
2021/08/25 15:45:34;;;;;;;2.90;2.00;;;;;;;15.45;59.55;100352.00;226983;1208;138363;-72
2021/08/25 15:50:36;;;;;;;2.80;1.60;;;;;;;15.42;59.70;100347.83;227546;1201;138492;-73
2021/08/25 15:55:38;;;;;;;2.30;2.10;;;;;;;15.37;59.61;100341.16;227081;1201;137954;-69
2021/08/25 16:00:39;;;;;;;6.90;2.00;;;;;;;15.29;60.43;100335.95;226969;1208;137812;-72
2021/08/25 16:05:41;;;;;;;1.90;1.50;;;;;;;15.24;61.19;100330.30;226964;1208;138683;-72
2021/08/25 16:10:44;;;;;;;2.20;1.50;;;;;;;15.09;61.27;100318.72;226957;1206;138325;-72
2021/08/25 16:15:46;;;;;;;3.00;1.70;;;;;;;15.00;60.69;100305.73;227392;1206;138815;-73
2021/08/25 16:20:48;;;;;;;4.20;2.00;;;;;;;15.00;61.12;100296.15;227367;1207;138524;-73
2021/08/25 16:25:50;;;;;;;3.40;1.80;;;;;;;14.98;61.41;100285.08;227014;1208;138436;-74
2021/08/25 16:30:51;;;;;;;2.80;2.40;;;;;;;14.91;61.76;100276.96;226944;1204;137950;-72
2021/08/25 16:35:54;;;;;;;12.70;6.90;;;;;;;14.92;62.40;100271.75;226923;1208;138165;-73
2021/08/25 16:40:56;;;;;;;3.60;2.40;;;;;;;14.92;62.99;100267.88;226927;1207;139688;-73
2021/08/25 16:45:57;;;;;;;4.80;2.10;;;;;;;14.87;63.26;100253.20;226941;1206;139149;-73
2021/08/25 16:50:59;;;;;;;2.10;1.90;;;;;;;14.72;64.06;100253.00;227092;1208;138169;-72
2021/08/25 16:56:01;;;;;;;3.40;1.80;;;;;;;14.57;64.88;100245.74;227080;1208;138082;-73
2021/08/25 17:01:04;;;;;;;2.60;2.00;;;;;;;14.43;65.59;100241.22;227081;1207;138692;-74
2021/08/25 17:06:05;;;;;;;3.10;1.80;;;;;;;14.30;65.87;100244.31;227030;1208;138388;-71
2021/08/25 17:11:07;;;;;;;2.70;1.50;;;;;;;14.20;66.27;100245.89;226957;1207;138173;-73
2021/08/25 17:16:09;;;;;;;2.00;1.90;;;;;;;14.07;66.83;100245.96;226987;1200;137909;-73
2021/08/25 17:21:11;;;;;;;3.00;2.20;;;;;;;14.00;67.27;100245.43;226948;1207;138444;-72
2021/08/25 17:26:13;;;;;;;2.60;1.80;;;;;;;13.91;67.47;100237.59;227263;1208;138605;-72
2021/08/25 17:31:15;;;;;;;2.80;2.00;;;;;;;13.89;67.57;100224.56;226930;1207;139556;-72
2021/08/25 17:36:20;;;;;;;5.40;2.50;;;;;;;13.82;67.95;100219.37;226919;1203;138046;-71
2021/08/25 17:41:22;;;;;;;4.60;2.80;;;;;;;13.72;68.64;100213.93;226868;1207;139060;-72
2021/08/25 17:46:24;;;;;;;3.10;2.70;;;;;;;13.64;69.28;100209.58;226930;1202;138924;-73
2021/08/25 17:51:25;;;;;;;3.80;2.90;;;;;;;13.54;69.83;100201.34;227152;1208;138674;-73
2021/08/25 17:56:27;;;;;;;3.30;3.00;;;;;;;13.40;70.16;100195.43;226917;1207;137974;-74
2021/08/25 18:01:31;;;;;;;4.90;3.40;;;;;;;13.33;70.44;100187.66;226883;1208;138341;-73
2021/08/25 18:06:33;;;;;;;4.80;3.30;;;;;;;13.28;70.66;100180.95;227114;1201;139012;-74
2021/08/25 18:11:34;;;;;;;4.60;3.80;;;;;;;13.31;70.57;100176.15;227001;1201;138714;-71
2021/08/25 18:16:36;;;;;;;3.60;3.30;;;;;;;13.29;70.43;100182.94;226900;1200;138600;-72
2021/08/25 18:21:45;;;;;;;5.20;4.20;;;;;;;13.22;70.68;100180.70;227041;1207;138258;-74
2021/08/25 18:26:46;;;;;;;4.90;3.70;;;;;;;13.16;70.80;100179.83;226881;1201;137924;-72
2021/08/25 18:31:52;;;;;;;4.60;3.50;;;;;;;13.07;71.20;100175.87;227101;1201;137995;-72
2021/08/25 18:36:54;;;;;;;5.00;4.00;;;;;;;13.02;71.41;100166.57;227174;1200;138401;-74
2021/08/25 18:41:56;;;;;;;5.30;4.10;;;;;;;12.97;71.42;100158.39;226870;1200;138481;-74
2021/08/25 18:46:58;;;;;;;5.40;3.90;;;;;;;12.98;71.55;100150.23;226945;1208;139366;-74
2021/08/25 18:52:00;;;;;;;4.90;4.40;;;;;;;13.04;71.44;100145.85;226870;1208;138868;-75
2021/08/25 18:57:01;;;;;;;5.30;4.40;;;;;;;13.00;71.29;100139.16;227198;1208;138451;-73
2021/08/25 19:02:03;;;;;;;5.50;4.20;;;;;;;12.95;71.52;100125.96;227075;1208;138894;-73
2021/08/25 19:07:06;;;;;;;6.40;4.50;;;;;;;12.90;71.66;100116.48;227110;1200;138693;-74
2021/08/25 19:12:08;;;;;;;5.00;4.20;;;;;;;12.86;71.63;100112.31;227011;1203;138538;-72
2021/08/25 19:17:10;;;;;;;5.50;4.00;;;;;;;12.84;71.94;100104.94;226985;1207;138030;-72
2021/08/25 19:22:12;;;;;;;4.80;3.90;;;;;;;12.84;71.91;100099.47;227646;1200;139041;-71
2021/08/25 19:27:13;;;;;;;4.90;4.00;;;;;;;12.86;71.94;100094.39;227425;1200;138463;-70
2021/08/25 19:32:15;;;;;;;6.60;4.20;;;;;;;12.88;71.78;100081.72;227334;1201;138326;-74
2021/08/25 19:37:17;;;;;;;4.30;3.60;;;;;;;12.85;71.95;100070.19;226888;1207;138765;-73
2021/08/25 19:42:18;;;;;;;6.00;5.40;;;;;;;12.83;71.80;100063.33;226984;1207;138749;-73
2021/08/25 19:47:20;;;;;;;4.70;4.00;;;;;;;12.82;71.69;100060.96;226967;1201;139210;-69
2021/08/25 19:52:22;;;;;;;7.00;5.00;;;;;;;12.80;71.70;100053.25;226956;1204;150989;-71
2021/08/25 19:57:25;;;;;;;7.50;5.10;;;;;;;12.80;71.61;100051.59;227087;1207;138739;-72
2021/08/25 20:02:26;;;;;;;6.00;5.30;;;;;;;12.85;71.37;100042.21;227188;1200;138622;-68
2021/08/25 20:07:28;;;;;;;6.20;4.60;;;;;;;12.87;71.44;100039.21;227020;1204;138744;-70
2021/08/25 20:12:30;;;;;;;5.10;4.50;;;;;;;12.89;71.39;100029.42;226874;1207;139518;-70
2021/08/25 20:17:31;;;;;;;6.10;5.00;;;;;;;12.86;71.47;100028.14;226950;1207;138558;-73
2021/08/25 20:22:33;;;;;;;5.90;4.50;;;;;;;12.83;71.54;100022.17;227036;1207;139024;-73
2021/08/25 20:27:35;;;;;;;6.10;4.20;;;;;;;12.81;71.61;100016.58;227238;1208;138306;-71
2021/08/25 20:32:36;;;;;;;7.30;4.60;;;;;;;12.81;71.55;100007.00;227013;1200;140116;-71
2021/08/25 20:37:38;;;;;;;5.80;4.20;;;;;;;12.86;71.24;100003.05;227120;1208;138393;-75
2021/08/25 20:42:40;;;;;;;6.30;4.20;;;;;;;12.88;71.27;100000.81;227581;1207;138388;-73
2021/08/25 20:47:41;;;;;;;4.90;4.00;;;;;;;12.87;71.30;99993.77;232019;1200;138440;-72
2021/08/25 20:52:44;;;;;;;4.40;3.60;;;;;;;12.84;71.46;99983.13;227647;1200;138159;-72
2021/08/25 20:57:46;;;;;;;5.40;4.00;;;;;;;12.82;71.61;99973.96;227170;1201;138029;-73
2021/08/25 21:02:47;;;;;;;4.80;3.80;;;;;;;12.78;71.88;99963.48;226990;1207;137713;-73
2021/08/25 21:07:49;;;;;;;6.10;4.50;;;;;;;12.78;72.14;99952.65;227076;1208;140035;-73
2021/08/25 21:12:50;;;;;;;6.00;4.60;;;;;;;12.80;72.09;99945.02;227139;1200;138370;-71
2021/08/25 21:17:52;;;;;;;5.40;4.00;;;;;;;12.79;72.67;99937.08;228412;1200;138117;-72
2021/08/25 21:22:54;;;;;;;4.10;3.70;;;;;;;12.71;73.12;99927.36;232693;1200;137793;-71
2021/08/25 21:27:55;;;;;;;5.60;4.00;;;;;;;12.69;73.53;99919.13;228875;1201;137931;-72
2021/08/25 21:33:00;;;;;;;4.90;3.50;;;;;;;12.60;74.09;99910.94;227311;1200;138176;-73
2021/08/25 21:38:02;;;;;;;6.00;4.20;;;;;;;12.58;74.27;99897.27;226985;1201;138610;-72
2021/08/25 21:43:04;;;;;;;6.60;4.10;;;;;;;12.63;73.98;99891.40;227041;1207;139239;-72
2021/08/25 21:48:06;;;;;;;4.20;3.70;;;;;;;12.70;73.51;99883.85;226984;1200;137789;-72
2021/08/25 21:53:08;;;;;;;5.60;4.30;;;;;;;12.70;73.79;99878.51;226994;1207;138218;-72
2021/08/25 21:58:10;;;;;;;5.80;3.90;;;;;;;12.66;73.85;99871.42;226915;1207;138018;-72
2021/08/25 22:03:12;;;;;;;4.90;4.20;;;;;;;12.62;74.17;99867.54;227389;1201;138984;-73
2021/08/25 22:08:14;;;;;;;6.20;4.00;;;;;;;12.66;74.14;99856.58;226894;1202;139246;-71
2021/08/25 22:13:15;;;;;;;5.60;4.20;;;;;;;12.69;74.08;99849.28;227017;1201;139191;-70
2021/08/25 22:18:17;;;;;;;7.20;4.50;;;;;;;12.74;74.15;99839.70;227006;1204;138166;-72
2021/08/25 22:23:18;;;;;;;5.60;4.20;;;;;;;12.75;73.99;99832.16;227014;1208;138862;-73
2021/08/25 22:28:20;;;;;;;6.90;4.90;;;;;;;12.72;74.13;99814.98;226928;1208;138292;-72
2021/08/25 22:33:22;;;;;;;5.40;4.00;;;;;;;12.70;74.28;99799.17;227056;1201;138443;-72
2021/08/25 22:38:24;;;;;;;4.10;3.70;;;;;;;12.70;74.39;99787.52;227164;1208;138970;-69
2021/08/25 22:43:25;;;;;;;6.00;4.50;;;;;;;12.73;74.11;99779.67;227185;1204;138341;-73
2021/08/25 22:48:27;;;;;;;6.40;5.00;;;;;;;12.76;74.00;99769.98;226996;1208;137869;-72
2021/08/25 22:53:29;;;;;;;6.20;4.60;;;;;;;12.72;74.30;99764.81;227014;1207;138194;-72
2021/08/25 22:58:30;;;;;;;5.40;4.20;;;;;;;12.71;74.38;99758.02;226942;1201;138200;-72
2021/08/25 23:03:32;;;;;;;6.90;5.10;;;;;;;12.72;74.39;99753.98;227118;1202;138513;-71